sensor_id;sensor_type;location;lat;lon;timestamp;pressure;altitude;pressure_sealevel;temperature;humidity
55187;BME280;55457;52.002;5.464;2023-05-24T00:01:03;102305.13;;;23.07;46.70
55187;BME280;55457;52.002;5.464;2023-05-24T00:03:31;102293.22;;;23.08;46.85
55187;BME280;55457;52.002;5.464;2023-05-24T00:06:01;102298.03;;;23.06;46.94
55187;BME280;55457;52.002;5.464;2023-05-24T00:08:28;102294.25;;;23.07;46.60
55187;BME280;55457;52.002;5.464;2023-05-24T00:10:53;102288.00;;;23.07;46.83
55187;BME280;55457;52.002;5.464;2023-05-24T00:13:18;102287.16;;;23.06;46.62
55187;BME280;55457;52.002;5.464;2023-05-24T00:15:44;102287.16;;;23.06;46.96
55187;BME280;55457;52.002;5.464;2023-05-24T00:18:09;102284.69;;;23.05;46.55
55187;BME280;55457;52.002;5.464;2023-05-24T00:20:34;102280.91;;;23.06;46.54
55187;BME280;55457;52.002;5.464;2023-05-24T00:23:00;102285.50;;;23.05;46.78
55187;BME280;55457;52.002;5.464;2023-05-24T00:25:26;102281.13;;;23.04;46.54
55187;BME280;55457;52.002;5.464;2023-05-24T00:27:51;102280.06;;;23.05;46.88
55187;BME280;55457;52.002;5.464;2023-05-24T00:30:17;102274.03;;;23.03;46.96
55187;BME280;55457;52.002;5.464;2023-05-24T00:32:42;102277.59;;;23.04;46.77
55187;BME280;55457;52.002;5.464;2023-05-24T00:35:07;102278.41;;;23.04;46.81
55187;BME280;55457;52.002;5.464;2023-05-24T00:37:33;102281.38;;;23.03;46.83
55187;BME280;55457;52.002;5.464;2023-05-24T00:39:58;102275.94;;;23.03;46.75
55187;BME280;55457;52.002;5.464;2023-05-24T00:42:23;102276.75;;;23.03;46.68
55187;BME280;55457;52.002;5.464;2023-05-24T00:44:49;102274.03;;;23.03;46.90
55187;BME280;55457;52.002;5.464;2023-05-24T00:47:14;102272.38;;;23.02;46.90
55187;BME280;55457;52.002;5.464;2023-05-24T00:49:40;102266.94;;;23.02;46.64
55187;BME280;55457;52.002;5.464;2023-05-24T00:52:06;102261.50;;;23.02;47.06
55187;BME280;55457;52.002;5.464;2023-05-24T00:54:33;102264.22;;;23.02;46.76
55187;BME280;55457;52.002;5.464;2023-05-24T00:56:59;102255.22;;;23.02;46.80
55187;BME280;55457;52.002;5.464;2023-05-24T00:59:25;102257.94;;;23.02;46.85
55187;BME280;55457;52.002;5.464;2023-05-24T01:01:50;102264.44;;;23.01;46.97
55187;BME280;55457;52.002;5.464;2023-05-24T01:04:16;102260.88;;;23.00;47.10
55187;BME280;55457;52.002;5.464;2023-05-24T01:07:17;102267.16;;;23.01;47.11
55187;BME280;55457;52.002;5.464;2023-05-24T01:17:53;102263.59;;;23.00;46.89
55187;BME280;55457;52.002;5.464;2023-05-24T01:20:25;102266.31;;;23.00;46.79
55187;BME280;55457;52.002;5.464;2023-05-24T01:28:01;102260.06;;;23.00;47.15
55187;BME280;55457;52.002;5.464;2023-05-24T01:30:28;102259.22;;;22.99;46.84
55187;BME280;55457;52.002;5.464;2023-05-24T01:32:54;102260.06;;;23.00;47.22
55187;BME280;55457;52.002;5.464;2023-05-24T01:35:19;102264.66;;;22.99;47.06
55187;BME280;55457;52.002;5.464;2023-05-24T01:37:45;102259.22;;;22.99;47.07
55187;BME280;55457;52.002;5.464;2023-05-24T01:40:11;102255.91;;;22.97;47.00
55187;BME280;55457;52.002;5.464;2023-05-24T01:42:44;102263.00;;;22.98;47.32
55187;BME280;55457;52.002;5.464;2023-05-24T01:50:33;102260.50;;;22.97;47.10
55187;BME280;55457;52.002;5.464;2023-05-24T01:53:06;102261.34;;;22.97;47.12
55187;BME280;55457;52.002;5.464;2023-05-24T01:55:34;102262.38;;;22.96;46.99
55187;BME280;55457;52.002;5.464;2023-05-24T01:58:02;102261.34;;;22.97;46.95
55187;BME280;55457;52.002;5.464;2023-05-24T02:00:29;102251.75;;;22.95;47.05
55187;BME280;55457;52.002;5.464;2023-05-24T02:02:56;102256.94;;;22.96;47.08
55187;BME280;55457;52.002;5.464;2023-05-24T02:05:22;102261.34;;;22.97;47.23
55187;BME280;55457;52.002;5.464;2023-05-24T02:07:48;102258.63;;;22.97;47.14
55187;BME280;55457;52.002;5.464;2023-05-24T02:10:13;102258.00;;;22.95;47.16
55187;BME280;55457;52.002;5.464;2023-05-24T02:12:38;102258.00;;;22.95;46.95
55187;BME280;55457;52.002;5.464;2023-05-24T02:15:04;102260.72;;;22.95;46.89
55187;BME280;55457;52.002;5.464;2023-05-24T02:17:31;102263.44;;;22.95;47.03
55187;BME280;55457;52.002;5.464;2023-05-24T02:20:01;102262.63;;;22.95;46.95
55187;BME280;55457;52.002;5.464;2023-05-24T02:22:26;102260.72;;;22.95;46.82
55187;BME280;55457;52.002;5.464;2023-05-24T02:24:52;102255.28;;;22.95;47.24
55187;BME280;55457;52.002;5.464;2023-05-24T02:27:18;102256.34;;;22.94;47.16
55187;BME280;55457;52.002;5.464;2023-05-24T02:29:43;102261.78;;;22.94;47.03
55187;BME280;55457;52.002;5.464;2023-05-24T02:32:09;102254.72;;;22.93;47.35
55187;BME280;55457;52.002;5.464;2023-05-24T02:34:34;102261.78;;;22.94;47.02
55187;BME280;55457;52.002;5.464;2023-05-24T02:37:00;102265.56;;;22.93;46.88
55187;BME280;55457;52.002;5.464;2023-05-24T02:39:26;102262.84;;;22.93;47.04
55187;BME280;55457;52.002;5.464;2023-05-24T02:41:51;102254.09;;;22.91;46.98
55187;BME280;55457;52.002;5.464;2023-05-24T02:44:17;102260.13;;;22.93;46.81
55187;BME280;55457;52.002;5.464;2023-05-24T02:46:42;102257.41;;;22.93;47.11
55187;BME280;55457;52.002;5.464;2023-05-24T02:49:07;102254.91;;;22.91;47.00
55187;BME280;55457;52.002;5.464;2023-05-24T02:51:34;102249.72;;;22.90;47.10
55187;BME280;55457;52.002;5.464;2023-05-24T02:54:01;102264.94;;;22.91;46.71
55187;BME280;55457;52.002;5.464;2023-05-24T02:56:26;102249.72;;;22.90;47.05
55187;BME280;55457;52.002;5.464;2023-05-24T02:58:53;102255.16;;;22.90;47.17
55187;BME280;55457;52.002;5.464;2023-05-24T03:01:20;102253.50;;;22.89;46.97
55187;BME280;55457;52.002;5.464;2023-05-24T03:03:46;102266.03;;;22.90;47.01
55187;BME280;55457;52.002;5.464;2023-05-24T03:06:12;102263.53;;;22.88;47.06
55187;BME280;55457;52.002;5.464;2023-05-24T03:08:40;102264.38;;;22.89;46.83
55187;BME280;55457;52.002;5.464;2023-05-24T03:11:06;102268.72;;;22.90;46.92
55187;BME280;55457;52.002;5.464;2023-05-24T03:13:32;102267.09;;;22.89;46.99
55187;BME280;55457;52.002;5.464;2023-05-24T03:15:57;102269.81;;;22.89;46.96
55187;BME280;55457;52.002;5.464;2023-05-24T03:18:23;102254.56;;;22.88;47.04
55187;BME280;55457;52.002;5.464;2023-05-24T03:20:48;102260.16;;;22.86;47.18
55187;BME280;55457;52.002;5.464;2023-05-24T03:23:14;102261.03;;;22.87;47.18
55187;BME280;55457;52.002;5.464;2023-05-24T03:25:39;102244.72;;;22.87;47.11
55187;BME280;55457;52.002;5.464;2023-05-24T03:28:05;102252.88;;;22.87;47.19
55187;BME280;55457;52.002;5.464;2023-05-24T03:30:31;102252.66;;;22.88;46.86
55187;BME280;55457;52.002;5.464;2023-05-24T03:32:57;102252.88;;;22.87;47.00
55187;BME280;55457;52.002;5.464;2023-05-24T03:35:22;102248.47;;;22.86;46.68
55187;BME280;55457;52.002;5.464;2023-05-24T03:37:48;102242.19;;;22.85;46.77
55187;BME280;55457;52.002;5.464;2023-05-24T03:40:14;102241.38;;;22.85;47.23
55187;BME280;55457;52.002;5.464;2023-05-24T03:42:39;102253.06;;;22.85;47.26
55187;BME280;55457;52.002;5.464;2023-05-24T03:45:07;102249.53;;;22.85;47.23
55187;BME280;55457;52.002;5.464;2023-05-24T03:47:32;102247.88;;;22.84;47.01
55187;BME280;55457;52.002;5.464;2023-05-24T03:49:57;102250.59;;;22.84;46.84
55187;BME280;55457;52.002;5.464;2023-05-24T03:52:23;102240.53;;;22.84;47.10
55187;BME280;55457;52.002;5.464;2023-05-24T03:54:49;102244.31;;;22.83;46.73
55187;BME280;55457;52.002;5.464;2023-05-24T03:57:14;102248.69;;;22.84;47.19
55187;BME280;55457;52.002;5.464;2023-05-24T03:59:40;102235.34;;;22.83;46.75
55187;BME280;55457;52.002;5.464;2023-05-24T04:02:05;102243.50;;;22.83;47.01
55187;BME280;55457;52.002;5.464;2023-05-24T04:04:31;102245.16;;;22.84;47.08
55187;BME280;55457;52.002;5.464;2023-05-24T04:06:56;102238.06;;;22.83;46.90
55187;BME280;55457;52.002;5.464;2023-05-24T04:09:22;102241.84;;;22.82;46.94
55187;BME280;55457;52.002;5.464;2023-05-24T04:11:48;102250.59;;;22.84;46.82
55187;BME280;55457;52.002;5.464;2023-05-24T04:14:13;102244.31;;;22.83;46.81
55187;BME280;55457;52.002;5.464;2023-05-24T04:16:39;102240.78;;;22.83;46.88
55187;BME280;55457;52.002;5.464;2023-05-24T04:19:05;102252.72;;;22.82;47.00
55187;BME280;55457;52.002;5.464;2023-05-24T04:21:30;102248.09;;;22.82;46.84
55187;BME280;55457;52.002;5.464;2023-05-24T04:23:57;102237.22;;;22.82;47.12
55187;BME280;55457;52.002;5.464;2023-05-24T04:26:25;102243.94;;;22.80;47.13
55187;BME280;55457;52.002;5.464;2023-05-24T04:28:51;102242.88;;;22.81;47.04
55187;BME280;55457;52.002;5.464;2023-05-24T04:31:16;102241.84;;;22.82;46.83
55187;BME280;55457;52.002;5.464;2023-05-24T04:33:42;102241.00;;;22.81;47.11
55187;BME280;55457;52.002;5.464;2023-05-24T04:36:07;102240.16;;;22.81;47.09
55187;BME280;55457;52.002;5.464;2023-05-24T04:38:35;102238.50;;;22.80;47.12
55187;BME280;55457;52.002;5.464;2023-05-24T04:41:03;102239.31;;;22.80;47.11
55187;BME280;55457;52.002;5.464;2023-05-24T04:43:30;102243.72;;;22.81;46.79
55187;BME280;55457;52.002;5.464;2023-05-24T04:45:55;102242.88;;;22.81;47.11
55187;BME280;55457;52.002;5.464;2023-05-24T04:48:21;102251.03;;;22.81;46.97
55187;BME280;55457;52.002;5.464;2023-05-24T04:50:53;102259.19;;;22.81;47.17
55187;BME280;55457;52.002;5.464;2023-05-24T04:53:19;102254.81;;;22.80;47.26
55187;BME280;55457;52.002;5.464;2023-05-24T04:55:45;102249.38;;;22.80;47.00
55187;BME280;55457;52.002;5.464;2023-05-24T04:58:10;102249.38;;;22.80;46.78
55187;BME280;55457;52.002;5.464;2023-05-24T05:00:35;102261.91;;;22.81;47.16
55187;BME280;55457;52.002;5.464;2023-05-24T05:03:01;102260.03;;;22.81;47.02
55187;BME280;55457;52.002;5.464;2023-05-24T05:05:26;102257.53;;;22.80;46.85
55187;BME280;55457;52.002;5.464;2023-05-24T05:07:51;102260.25;;;22.80;47.16
55187;BME280;55457;52.002;5.464;2023-05-24T05:10:17;102254.81;;;22.80;47.07
55187;BME280;55457;52.002;5.464;2023-05-24T05:12:42;102254.81;;;22.80;46.93
55187;BME280;55457;52.002;5.464;2023-05-24T05:15:09;102252.09;;;22.80;46.93
55187;BME280;55457;52.002;5.464;2023-05-24T05:17:34;102257.53;;;22.80;47.32
55187;BME280;55457;52.002;5.464;2023-05-24T05:19:59;102254.81;;;22.80;47.25
55187;BME280;55457;52.002;5.464;2023-05-24T05:22:25;102253.16;;;22.79;46.90
55187;BME280;55457;52.002;5.464;2023-05-24T05:24:50;102255.63;;;22.80;46.97
55187;BME280;55457;52.002;5.464;2023-05-24T05:27:16;102257.53;;;22.80;46.98
55187;BME280;55457;52.002;5.464;2023-05-24T05:29:41;102264.03;;;22.79;46.84
55187;BME280;55457;52.002;5.464;2023-05-24T05:32:07;102267.56;;;22.79;47.11
55187;BME280;55457;52.002;5.464;2023-05-24T05:34:32;102270.28;;;22.79;46.88
55187;BME280;55457;52.002;5.464;2023-05-24T05:36:57;102264.84;;;22.79;47.06
55187;BME280;55457;52.002;5.464;2023-05-24T05:39:23;102262.38;;;22.78;47.18
55187;BME280;55457;52.002;5.464;2023-05-24T05:41:48;102276.53;;;22.80;47.24
55187;BME280;55457;52.002;5.464;2023-05-24T05:44:13;102269.47;;;22.79;47.05
55187;BME280;55457;52.002;5.464;2023-05-24T05:46:39;102271.13;;;22.80;47.27
55187;BME280;55457;52.002;5.464;2023-05-24T05:49:05;102275.72;;;22.79;47.23
55187;BME280;55457;52.002;5.464;2023-05-24T05:51:31;102281.16;;;22.79;47.18
55187;BME280;55457;52.002;5.464;2023-05-24T05:53:56;102280.34;;;22.79;46.90
55187;BME280;55457;52.002;5.464;2023-05-24T05:56:22;102281.16;;;22.79;47.27
55187;BME280;55457;52.002;5.464;2023-05-24T05:58:47;102275.72;;;22.79;47.38
55187;BME280;55457;52.002;5.464;2023-05-24T06:01:14;102269.69;;;22.77;47.26
55187;BME280;55457;52.002;5.464;2023-05-24T06:03:40;102283.03;;;22.79;47.30
55187;BME280;55457;52.002;5.464;2023-05-24T06:06:05;102275.72;;;22.79;47.27
55187;BME280;55457;52.002;5.464;2023-05-24T06:08:30;102271.13;;;22.80;47.04
55187;BME280;55457;52.002;5.464;2023-05-24T06:11:01;102273.25;;;22.78;47.13
55187;BME280;55457;52.002;5.464;2023-05-24T06:13:27;102273.84;;;22.80;47.18
55187;BME280;55457;52.002;5.464;2023-05-24T06:15:53;102272.19;;;22.79;47.36
55187;BME280;55457;52.002;5.464;2023-05-24T06:18:19;102269.47;;;22.79;47.11
55187;BME280;55457;52.002;5.464;2023-05-24T06:20:47;102274.66;;;22.80;47.69
55187;BME280;55457;52.002;5.464;2023-05-24T06:23:13;102273.84;;;22.80;47.19
55187;BME280;55457;52.002;5.464;2023-05-24T06:25:38;102274.91;;;22.79;47.13
55187;BME280;55457;52.002;5.464;2023-05-24T06:28:04;102263.19;;;22.78;47.20
55187;BME280;55457;52.002;5.464;2023-05-24T06:30:30;102269.47;;;22.79;47.13
55187;BME280;55457;52.002;5.464;2023-05-24T06:32:55;102279.50;;;22.78;47.53
55187;BME280;55457;52.002;5.464;2023-05-24T06:35:21;102281.16;;;22.79;47.31
55187;BME280;55457;52.002;5.464;2023-05-24T06:37:46;102279.75;;;22.77;47.37
55187;BME280;55457;52.002;5.464;2023-05-24T06:40:12;102289.31;;;22.79;47.40
55187;BME280;55457;52.002;5.464;2023-05-24T06:42:38;102294.50;;;22.81;47.06
55187;BME280;55457;52.002;5.464;2023-05-24T06:45:04;102297.22;;;22.81;47.50
55187;BME280;55457;52.002;5.464;2023-05-24T06:47:30;102290.97;;;22.80;47.37
55187;BME280;55457;52.002;5.464;2023-05-24T06:49:58;102288.47;;;22.79;46.89
55187;BME280;55457;52.002;5.464;2023-05-24T06:52:25;102294.50;;;22.81;46.95
55187;BME280;55457;52.002;5.464;2023-05-24T06:54:51;102287.41;;;22.80;47.31
55187;BME280;55457;52.002;5.464;2023-05-24T06:57:16;102289.31;;;22.79;46.93
55187;BME280;55457;52.002;5.464;2023-05-24T06:59:42;102292.84;;;22.80;47.30
55187;BME280;55457;52.002;5.464;2023-05-24T07:02:07;102298.28;;;22.80;47.46
55187;BME280;55457;52.002;5.464;2023-05-24T07:04:32;102293.69;;;22.80;47.15
55187;BME280;55457;52.002;5.464;2023-05-24T07:06:58;102289.06;;;22.81;46.91
55187;BME280;55457;52.002;5.464;2023-05-24T07:09:23;102287.22;;;22.81;46.98
55187;BME280;55457;52.002;5.464;2023-05-24T07:11:49;102298.91;;;22.82;47.26
55187;BME280;55457;52.002;5.464;2023-05-24T07:14:14;102296.78;;;22.84;47.24
55187;BME280;55457;52.002;5.464;2023-05-24T07:16:39;102295.72;;;22.85;46.82
55187;BME280;55457;52.002;5.464;2023-05-24T07:19:05;102285.69;;;22.85;46.89
55187;BME280;55457;52.002;5.464;2023-05-24T07:21:31;102292.78;;;22.86;47.15
55187;BME280;55457;52.002;5.464;2023-05-24T07:23:56;102294.47;;;22.87;47.15
55187;BME280;55457;52.002;5.464;2023-05-24T07:26:22;102298.88;;;22.88;47.06
55187;BME280;55457;52.002;5.464;2023-05-24T07:28:47;102288.00;;;22.88;46.66
55187;BME280;55457;52.002;5.464;2023-05-24T07:31:13;102295.09;;;22.89;47.00
55187;BME280;55457;52.002;5.464;2023-05-24T07:33:39;102289.41;;;22.91;46.63
55187;BME280;55457;52.002;5.464;2023-05-24T07:36:05;102286.31;;;22.87;46.99
55187;BME280;55457;52.002;5.464;2023-05-24T07:38:31;102296.34;;;22.87;47.00
55187;BME280;55457;52.002;5.464;2023-05-24T07:41:01;102302.81;;;22.86;46.92
55187;BME280;55457;52.002;5.464;2023-05-24T07:43:28;102291.13;;;22.85;46.73
55187;BME280;55457;52.002;5.464;2023-05-24T07:45:53;102297.63;;;22.84;47.04
55187;BME280;55457;52.002;5.464;2023-05-24T07:48:19;102299.50;;;22.84;47.04
55187;BME280;55457;52.002;5.464;2023-05-24T07:50:45;102304.13;;;22.83;47.13
55187;BME280;55457;52.002;5.464;2023-05-24T07:53:14;102301.16;;;22.85;46.62
55187;BME280;55457;52.002;5.464;2023-05-24T07:55:39;102300.09;;;22.86;46.71
55187;BME280;55457;52.002;5.464;2023-05-24T07:58:05;102290.28;;;22.85;46.83
55187;BME280;55457;52.002;5.464;2023-05-24T08:00:31;102297.38;;;22.86;46.95
55187;BME280;55457;52.002;5.464;2023-05-24T08:02:57;102302.81;;;22.86;46.69
55187;BME280;55457;52.002;5.464;2023-05-24T08:05:22;102292.19;;;22.84;46.95
55187;BME280;55457;52.002;5.464;2023-05-24T08:07:48;102295.50;;;22.86;46.92
55187;BME280;55457;52.002;5.464;2023-05-24T08:10:13;102289.22;;;22.86;46.63
55187;BME280;55457;52.002;5.464;2023-05-24T08:12:38;102293.19;;;22.90;46.73
55187;BME280;55457;52.002;5.464;2023-05-24T08:15:04;102289.41;;;22.91;46.51
55187;BME280;55457;52.002;5.464;2023-05-24T08:17:30;102293.81;;;22.92;46.72
55187;BME280;55457;52.002;5.464;2023-05-24T08:19:56;102295.47;;;22.93;46.69
55187;BME280;55457;52.002;5.464;2023-05-24T08:22:21;102292.53;;;22.95;46.91
55187;BME280;55457;52.002;5.464;2023-05-24T08:24:46;102295.47;;;22.93;46.84
55187;BME280;55457;52.002;5.464;2023-05-24T08:27:12;102292.75;;;22.93;46.98
55187;BME280;55457;52.002;5.464;2023-05-24T08:29:38;102289.41;;;22.91;46.72
55187;BME280;55457;52.002;5.464;2023-05-24T08:32:03;102290.03;;;22.93;46.85
55187;BME280;55457;52.002;5.464;2023-05-24T08:34:34;102283.97;;;22.91;47.04
55187;BME280;55457;52.002;5.464;2023-05-24T08:37:00;102286.50;;;22.92;47.02
55187;BME280;55457;52.002;5.464;2023-05-24T08:39:26;102289.41;;;22.91;47.18
55187;BME280;55457;52.002;5.464;2023-05-24T08:41:51;102277.72;;;22.90;46.92
55187;BME280;55457;52.002;5.464;2023-05-24T08:44:17;102285.66;;;22.92;46.89
55187;BME280;55457;52.002;5.464;2023-05-24T08:46:43;102284.59;;;22.93;47.10
55187;BME280;55457;52.002;5.464;2023-05-24T08:49:09;102283.94;;;22.98;47.26
55187;BME280;55457;52.002;5.464;2023-05-24T08:51:37;102280.97;;;22.99;46.87
55187;BME280;55457;52.002;5.464;2023-05-24T08:54:04;102274.72;;;22.99;47.11
55187;BME280;55457;52.002;5.464;2023-05-24T08:56:30;102276.59;;;22.98;46.92
55187;BME280;55457;52.002;5.464;2023-05-24T08:58:56;102281.22;;;22.98;47.42
55187;BME280;55457;52.002;5.464;2023-05-24T09:01:23;102275.53;;;22.99;47.09
55187;BME280;55457;52.002;5.464;2023-05-24T09:03:49;102272.59;;;23.01;46.98
55187;BME280;55457;52.002;5.464;2023-05-24T09:06:17;102269.28;;;22.99;47.27
55187;BME280;55457;52.002;5.464;2023-05-24T09:08:43;102272.22;;;22.97;47.13
55187;BME280;55457;52.002;5.464;2023-05-24T09:11:13;102266.31;;;23.00;46.74
55187;BME280;55457;52.002;5.464;2023-05-24T09:13:39;102269.19;;;23.05;46.68
55187;BME280;55457;52.002;5.464;2023-05-24T09:16:05;102268.75;;;23.08;46.79
55187;BME280;55457;52.002;5.464;2023-05-24T09:18:30;102279.16;;;23.11;46.91
55187;BME280;55457;52.002;5.464;2023-05-24T09:20:56;102273.28;;;23.14;46.85
55187;BME280;55457;52.002;5.464;2023-05-24T09:23:21;102274.34;;;23.13;46.61
55187;BME280;55457;52.002;5.464;2023-05-24T09:25:48;102281.81;;;23.18;46.67
55187;BME280;55457;52.002;5.464;2023-05-24T09:28:16;102281.97;;;23.23;46.44
55187;BME280;55457;52.002;5.464;2023-05-24T09:30:42;102287.75;;;23.27;46.83
55187;BME280;55457;52.002;5.464;2023-05-24T09:33:08;102274.78;;;23.29;46.41
55187;BME280;55457;52.002;5.464;2023-05-24T09:35:33;102282.94;;;23.29;46.55
55187;BME280;55457;52.002;5.464;2023-05-24T09:38:01;102281.25;;;23.28;46.67
55187;BME280;55457;52.002;5.464;2023-05-24T09:40:27;102274.97;;;23.27;46.27
55187;BME280;55457;52.002;5.464;2023-05-24T09:45:29;102273.81;;;23.23;46.46
55187;BME280;55457;52.002;5.464;2023-05-24T09:47:54;102266.81;;;23.27;46.36
55187;BME280;55457;52.002;5.464;2023-05-24T09:50:19;102270.16;;;23.29;46.32
55187;BME280;55457;52.002;5.464;2023-05-24T09:52:47;102274.31;;;23.32;46.48
55187;BME280;55457;52.002;5.464;2023-05-24T09:55:17;102272.66;;;23.31;46.29
55187;BME280;55457;52.002;5.464;2023-05-24T09:57:43;102271.59;;;23.32;46.48
55187;BME280;55457;52.002;5.464;2023-05-24T10:00:10;102283.09;;;23.34;46.53
55187;BME280;55457;52.002;5.464;2023-05-24T10:02:39;102279.28;;;23.35;46.28
55187;BME280;55457;52.002;5.464;2023-05-24T10:05:04;102283.09;;;23.34;45.54
55187;BME280;55457;52.002;5.464;2023-05-24T10:07:32;102277.03;;;23.32;45.68
55187;BME280;55457;52.002;5.464;2023-05-24T10:09:59;102285.41;;;23.30;46.11
55187;BME280;55457;52.002;5.464;2023-05-24T10:12:25;102287.31;;;23.30;45.96
55187;BME280;55457;52.002;5.464;2023-05-24T10:14:52;102288.38;;;23.29;46.25
55187;BME280;55457;52.002;5.464;2023-05-24T10:17:21;102272.06;;;23.29;45.93
55187;BME280;55457;52.002;5.464;2023-05-24T10:19:47;102276.63;;;23.28;46.12
55187;BME280;55457;52.002;5.464;2023-05-24T10:22:13;102277.72;;;23.27;46.29
55187;BME280;55457;52.002;5.464;2023-05-24T10:24:45;102286.94;;;23.26;46.18
55187;BME280;55457;52.002;5.464;2023-05-24T10:27:14;102277.34;;;23.24;46.13
55187;BME280;55457;52.002;5.464;2023-05-24T10:32:12;102275.13;;;23.32;46.06
55187;BME280;55457;52.002;5.464;2023-05-24T10:34:39;102279.75;;;23.32;45.91
55187;BME280;55457;52.002;5.464;2023-05-24T10:37:05;102272.88;;;23.29;46.09
55187;BME280;55457;52.002;5.464;2023-05-24T10:39:32;102273.91;;;23.28;45.95
55187;BME280;55457;52.002;5.464;2023-05-24T10:42:02;102271.44;;;23.27;45.98
55187;BME280;55457;52.002;5.464;2023-05-24T10:44:28;102279.00;;;23.25;45.51
55187;BME280;55457;52.002;5.464;2023-05-24T10:47:13;102273.81;;;23.23;45.17
55187;BME280;55457;52.002;5.464;2023-05-24T10:49:51;102275.06;;;23.21;45.32
55187;BME280;55457;52.002;5.464;2023-05-24T10:52:19;102270.22;;;23.23;45.50
55187;BME280;55457;52.002;5.464;2023-05-24T10:55:03;102277.94;;;23.26;46.01
55187;BME280;55457;52.002;5.464;2023-05-24T10:57:29;102280.41;;;23.27;45.80
55187;BME280;55457;52.002;5.464;2023-05-24T10:59:57;102272.25;;;23.27;45.89
55187;BME280;55457;52.002;5.464;2023-05-24T11:02:26;102275.59;;;23.29;45.92
55187;BME280;55457;52.002;5.464;2023-05-24T11:04:52;102269.34;;;23.29;46.41
55187;BME280;55457;52.002;5.464;2023-05-24T11:07:18;102269.09;;;23.30;46.23
55187;BME280;55457;52.002;5.464;2023-05-24T11:09:46;102273.72;;;23.30;46.34
55187;BME280;55457;52.002;5.464;2023-05-24T11:12:15;102276.63;;;23.28;46.27
55187;BME280;55457;52.002;5.464;2023-05-24T11:14:47;102272.88;;;23.29;46.28
55187;BME280;55457;52.002;5.464;2023-05-24T11:17:13;102269.34;;;23.29;46.28
55187;BME280;55457;52.002;5.464;2023-05-24T11:19:46;102269.69;;;23.32;46.52
55187;BME280;55457;52.002;5.464;2023-05-24T11:22:13;102270.50;;;23.33;46.19
55187;BME280;55457;52.002;5.464;2023-05-24T11:24:40;102269.63;;;23.39;46.00
55187;BME280;55457;52.002;5.464;2023-05-24T11:27:06;102263.31;;;23.38;46.08
55187;BME280;55457;52.002;5.464;2023-05-24T11:29:32;102274.22;;;23.38;46.25
55187;BME280;55457;52.002;5.464;2023-05-24T11:32:04;102266.91;;;23.39;46.17
55187;BME280;55457;52.002;5.464;2023-05-24T11:34:30;102272.34;;;23.39;46.01
55187;BME280;55457;52.002;5.464;2023-05-24T11:37:00;102272.94;;;23.41;46.20
55187;BME280;55457;52.002;5.464;2023-05-24T11:39:30;102266.91;;;23.39;46.41
55187;BME280;55457;52.002;5.464;2023-05-24T11:41:56;102265.84;;;23.40;46.33
55187;BME280;55457;52.002;5.464;2023-05-24T11:44:21;102275.91;;;23.39;46.23
55187;BME280;55457;52.002;5.464;2023-05-24T11:46:47;102263.13;;;23.40;46.13
55187;BME280;55457;52.002;5.464;2023-05-24T11:49:16;102272.50;;;23.44;46.20
55187;BME280;55457;52.002;5.464;2023-05-24T11:51:42;102266.56;;;23.47;46.32
55187;BME280;55457;52.002;5.464;2023-05-24T11:54:08;102264.47;;;23.49;46.16
55187;BME280;55457;52.002;5.464;2023-05-24T11:56:33;102263.84;;;23.47;46.00
55187;BME280;55457;52.002;5.464;2023-05-24T11:59:07;102261.13;;;23.47;46.38
55187;BME280;55457;52.002;5.464;2023-05-24T12:01:33;102264.91;;;23.46;46.19
55187;BME280;55457;52.002;5.464;2023-05-24T12:03:59;102268.47;;;23.47;46.03
55187;BME280;55457;52.002;5.464;2023-05-24T12:06:34;102250.25;;;23.47;46.06
55187;BME280;55457;52.002;5.464;2023-05-24T12:09:00;102252.72;;;23.49;46.23
55187;BME280;55457;52.002;5.464;2023-05-24T12:11:25;102255.69;;;23.47;45.99
55187;BME280;55457;52.002;5.464;2023-05-24T12:13:52;102255.69;;;23.47;46.32
55187;BME280;55457;52.002;5.464;2023-05-24T12:16:18;102266.56;;;23.47;46.22
55187;BME280;55457;52.002;5.464;2023-05-24T12:18:43;102261.13;;;23.47;46.13
55187;BME280;55457;52.002;5.464;2023-05-24T12:21:09;102259.47;;;23.46;46.22
55187;BME280;55457;52.002;5.464;2023-05-24T12:23:35;102262.78;;;23.48;46.05
55187;BME280;55457;52.002;5.464;2023-05-24T12:26:02;102252.97;;;23.47;45.88
55187;BME280;55457;52.002;5.464;2023-05-24T12:28:32;102251.91;;;23.48;45.91
55187;BME280;55457;52.002;5.464;2023-05-24T12:31:01;102251.91;;;23.48;46.10
55187;BME280;55457;52.002;5.464;2023-05-24T12:33:27;102251.91;;;23.48;46.09
55187;BME280;55457;52.002;5.464;2023-05-24T12:35:53;102249.78;;;23.50;46.02
55187;BME280;55457;52.002;5.464;2023-05-24T12:38:18;102246.00;;;23.51;46.10
55187;BME280;55457;52.002;5.464;2023-05-24T12:40:49;102245.78;;;23.53;46.15
55187;BME280;55457;52.002;5.464;2023-05-24T12:43:14;102243.28;;;23.51;45.99
55187;BME280;55457;52.002;5.464;2023-05-24T12:45:40;102249.78;;;23.50;46.27
55187;BME280;55457;52.002;5.464;2023-05-24T12:48:06;102241.84;;;23.49;46.15
55187;BME280;55457;52.002;5.464;2023-05-24T12:50:31;102248.16;;;23.49;46.72
55187;BME280;55457;52.002;5.464;2023-05-24T12:52:59;102252.50;;;23.50;46.27
55187;BME280;55457;52.002;5.464;2023-05-24T12:55:26;102248.88;;;23.56;46.18
55187;BME280;55457;52.002;5.464;2023-05-24T12:57:55;102241.25;;;23.65;45.96
55187;BME280;55457;52.002;5.464;2023-05-24T13:00:25;102245.38;;;23.67;45.81
55187;BME280;55457;52.002;5.464;2023-05-24T13:02:54;102240.75;;;23.68;46.00
55187;BME280;55457;52.002;5.464;2023-05-24T13:05:23;102242.06;;;23.65;45.98
55187;BME280;55457;52.002;5.464;2023-05-24T13:07:50;102244.19;;;23.63;46.14
55187;BME280;55457;52.002;5.464;2023-05-24T13:10:15;102247.94;;;23.62;45.90